Home   Weather   City of Florence   Past weeks
Flag for USA

Past Weather in City of Florence, Kentucky, USA — April 2018

Currently: 87 °F. Sunny. (Weather station: Cincinnati Municipal Airport Lunken Field, USA). See more current weather

April 2018 Weather in City of Florence — Graph

°F

High & Low Weather Summary for April 2018

 TemperatureHumidityPressure
High80 °F (Apr 13, 3:53 pm)100% (Apr 1, 10:53 pm)30.51 "Hg (Apr 1, 10:53 pm)
Low27 °F (Apr 8, 6:53 am)24% (Apr 30, 2:53 pm)29.54 "Hg (Apr 3, 8:53 pm)
Average49 °F69%30.03 "Hg
* Reported Apr 1 1:03 am — Apr 30 11:53 pm, City of Florence. Weather by CustomWeather, © 2022

Note: Actual official high and low records may vary slightly from our data, if they occured in-between our weather recording intervals... More about our weather records

City of Florence Weather History for April 1, 2018

Scroll right to see more
 ConditionsComfort  
Time TempWeatherWind HumidityBarometerVisibility
1:03 am
Sun, Apr 1
50 °FLight rain. Mostly cloudy.10 mph93%30.09 "Hg10 mi
2:16 am50 °FMostly cloudy.7 mph93%30.08 "Hg10 mi
2:53 am50 °FOvercast.7 mph96%30.09 "Hg8 mi
3:53 am50 °FLight rain. Overcast.6 mph96%30.08 "Hg8 mi
4:34 am45 °FMostly cloudy.16 mph80%30.10 "Hg10 mi
4:53 am44 °FOvercast.8 mph82%30.11 "Hg10 mi
5:53 am42 °FOvercast.10 mph76%30.15 "Hg10 mi
6:41 am40 °FOvercast.10 mph77%30.17 "Hg10 mi
6:53 am40 °FMostly cloudy.12 mph70%30.17 "Hg10 mi
7:53 am38 °FScattered clouds.9 mph70%30.20 "Hg10 mi
8:53 am39 °FPassing clouds.8 mph67%30.22 "Hg10 mi
9:53 am41 °FSunny.12 mph62%30.23 "Hg10 mi
10:53 am44 °FSunny.10 mph58%30.23 "Hg10 mi
11:53 am44 °FSunny.8 mph60%30.23 "Hg10 mi
12:53 pm48 °FSunny.N/A56%30.21 "Hg10 mi
1:53 pm48 °FSunny.8 mph52%30.20 "Hg10 mi
2:53 pm49 °FScattered clouds.3 mph52%30.17 "Hg10 mi
3:53 pm49 °FPassing clouds.8 mph48%30.15 "Hg10 mi
4:53 pm49 °FPassing clouds.8 mph44%30.14 "Hg10 mi
5:53 pm48 °FPassing clouds.9 mph50%30.11 "Hg10 mi
6:53 pm47 °FSunny.13 mph54%30.09 "Hg10 mi
7:53 pm46 °FPartly sunny.9 mph50%30.07 "Hg10 mi
8:53 pm45 °FOvercast.10 mph49%30.07 "Hg10 mi
9:53 pm40 °FLight rain. Overcast.14 mph77%30.12 "Hg9 mi
10:26 pm37 °FRain. Fog.12 mph89%30.12 "Hg3 mi
10:53 pm33 °FLight snow. Fog.7 mph100%30.12 "Hg1 mi
11:05 pm33 °FLight snow. Fog.3 mph100%30.11 "Hg2 mi
11:14 pm33 °FLight snow. Fog.6 mph100%30.09 "Hg4 mi
11:34 pm33 °FLight snow. Fog.5 mph100%30.11 "Hg1 mi
Weather by CustomWeather, © 2022

See weather overview